Soaring Guidance
Issued by NWS Reno, NV

Home | Current Version | Previous Version | Text Only | Print | Product List | Glossary On
Versions: 1 2 3 4 5 6 7
000
UXUS97 KREV 231454
SRGREV

SOARING FORECAST
NATIONAL WEATHER SERVICE - RENO NV
700 AM PST THU NOV 23 2017

THIS SOARING FORECAST IS FOR THE EASTERN SIERRA AND WESTERN NEVADA
WITH SPECIFIC INDICES FOR THE GREATER RENO AREA.

THIS FORECAST IS PREPARED DAILY BY 700 AM AND IS NOT UPDATED.

FOR CURRENT FLIGHT CONDITIONS...FORECASTS...AND ADVISORIES...ACCESS
YOUR LOCAL BRIEFING OUTLET OR FLIGHT SERVICE STATION.

*******************************************************************
FORECASTED LOCAL INDICES FOR RENO:        TODAY     YESTERDAY
FORECASTED MAX TEMP AT RENO (DEG F).....     67          65
FORECASTED TRIGGER TEMPERATURE (DEG F)..     67          68
   EXCEEDED YESTERDAY BY
FORECASTED MAXIMUM ALTITUDE (FT MSL)....   8400        9700
FORECASTED SOARING INDEX (FPM)..........    282         411
FORECASTED K-INDEX.........VALID 18Z....      9          14
FORECASTED K-INDEX.........VALID 00Z....     23          14
FORECASTED LIFTED INDEX....VALID 18Z....      6           5
FORECASTED LIFTED INDEX....VALID 00Z....      6           4

AFTERNOON WINDS ALOFT FORECAST
MSL (FT) WIND/TEMP
9000  2626/+07
10000 2630/+05
12000 2637/+02
14000 2540/-02
16000 2544/-07
18000 2555/-12
24000 2563/-23
30000 2590/-37
34000 2599/-47
39000 2699/-57

SLIDE MOUNTAIN DATA:
     DATE       TIME     TEMP  DEWPT   RH         WIND (MPH)
                        (F)   (F)           | DIR  SPEED GUST
2017-11-23    04:50      41    33     65    | 235   43   55
2017-11-23    04:30      41    33     65    | 235   43   55
2017-11-23    04:20      41    32     64    | 234   41   56
2017-11-23    04:00      40    32     64    | 233   41   54

SIERRA CREST 8700 FT DATA:
   DATE     TIME  TEMP  RH         WIND
                            DIR   SPEED   GUST
2017-11-23 0545   42   62   223     34     45
2017-11-23 0530   42   63   222     37     47
2017-11-23 0515   42   63   226     39     50
2017-11-23 0500   42   62   228     38     48

RENO TAF FORECAST:
KRNO 231120Z 2312/2412 VRB04KT P6SM SCT120 BKN220
     FM232100 28007KT P6SM SCT100 BKN180
     FM240300 VRB04KT P6SM SCT100 BKN180

CARSON CITY TAF FORECAST:
KCXP 231120Z 2312/2412 VRB04KT P6SM SCT120 BKN220
     FM232100 24007KT P6SM SCT100 BKN180

OUTLOOK FOR THE RENO-CARSON CITY-MINDEN AREA:
.FRIDAY...PARTLY CLOUDY IN THE MORNING THEN BECOMING MOSTLY
CLOUDY. HIGHS 62 TO 67. SOUTHWEST WINDS AROUND 10 MPH.

SUNRISE AND SUNSET
NOVEMBER 23 2017......SUNRISE   652 AM PST   SUNSET   439 PM PST
NOVEMBER 24 2017......SUNRISE   653 AM PST   SUNSET   438 PM PST



USA.gov is the U.S. government's official web portal to all federal, state and local government web resources and services.